Avalon, Wisconsin
Current Conditions -  °F | °C
As of 6:45 AM on Saturday 25 Oct 2014 (Local Time) from KJVL Reporting Station
Haze Haze  
Wind Chill: 54°   Ceiling: Unl
Heat Index: 54°   Visibility: 2mi
Dew Point: 52°   Wind: 7mph
Humidity: 94%   Direction: 290°WNW
Pressure: 29.91"   Gusts: NA
Location:  42.63°N, 88.87°W
Report Text: KJVL 251145Z 29006KT 2SM BR CLR 12/11 A2991
Loading
Personal Weather Stations






























Interactive Weather Map
Tropical Storm Tracking
New forecast layout! Learn more

10-Day Weather Forecast

Advertisements
Track Severe Weather on mobile